createdAt,value
2018-06-17T00:02:29.025Z,7.57
2018-06-17T00:05:01.152Z,7.00
2018-06-17T00:07:33.266Z,7.33
2018-06-17T00:10:04.881Z,7.53
2018-06-17T00:12:36.868Z,6.90
2018-06-17T00:15:08.500Z,7.10
2018-06-17T00:17:42.144Z,6.70
2018-06-17T00:20:13.568Z,6.63
2018-06-17T00:22:44.208Z,7.20
2018-06-17T00:25:15.632Z,7.10
2018-06-17T00:27:47.621Z,6.00
2018-06-17T00:30:19.208Z,6.77
2018-06-17T00:32:50.870Z,7.50
2018-06-17T00:35:22.496Z,6.90
2018-06-17T00:37:54.817Z,5.60
2018-06-17T00:40:26.501Z,6.70
2018-06-17T00:42:58.421Z,6.90
2018-06-17T00:45:30.012Z,6.63
2018-06-17T00:48:01.874Z,6.90
2018-06-17T00:50:33.494Z,6.60
2018-06-17T00:53:06.066Z,6.13
2018-06-17T00:55:38.191Z,6.37
2018-06-17T00:58:10.049Z,6.40
2018-06-17T01:00:41.847Z,6.30
2018-06-17T01:03:13.600Z,6.27
2018-06-17T01:05:45.316Z,6.80
2018-06-17T01:08:17.086Z,6.40
2018-06-17T01:10:48.844Z,6.47
2018-06-17T01:13:20.364Z,6.10
2018-06-17T01:15:51.925Z,7.03
2018-06-17T01:18:24.574Z,6.40
2018-06-17T01:20:56.160Z,6.53
2018-06-17T01:23:28.239Z,5.97
2018-06-17T01:26:04.415Z,5.30
2018-06-17T01:28:36.067Z,6.30
2018-06-17T01:31:07.724Z,5.30
2018-06-17T01:33:39.480Z,6.23
2018-06-17T01:36:11.005Z,5.90
2018-06-17T01:38:42.721Z,5.63
2018-06-17T01:41:14.282Z,6.57
2018-06-17T01:43:45.946Z,6.57
2018-06-17T01:46:17.974Z,6.70
2018-06-17T01:48:49.429Z,5.90
2018-06-17T01:51:21.122Z,5.87
2018-06-17T01:53:52.697Z,6.67
2018-06-17T01:56:25.655Z,6.50
2018-06-17T01:58:57.829Z,6.03
2018-06-17T02:01:29.673Z,6.80
2018-06-17T02:04:06.433Z,6.53
2018-06-17T02:06:43.019Z,6.83
2018-06-17T02:09:19.835Z,7.10
2018-06-17T02:11:56.027Z,6.30
2018-06-17T02:14:32.724Z,6.07
2018-06-17T02:17:04.348Z,7.23
2018-06-17T02:19:36.599Z,6.90
2018-06-17T02:22:08.033Z,7.23
2018-06-17T02:24:39.724Z,6.30
2018-06-17T02:27:11.392Z,6.50
2018-06-17T02:29:43.377Z,6.97
2018-06-17T02:32:15.446Z,6.70
2018-06-17T02:34:47.951Z,7.23
2018-06-17T02:37:19.580Z,8.07
2018-06-17T02:39:51.412Z,7.73
2018-06-17T02:42:23.151Z,8.23
2018-06-17T02:44:59.864Z,6.00
2018-06-17T02:47:36.027Z,7.20
2018-06-17T02:50:12.471Z,8.47
2018-06-17T02:52:49.116Z,7.70
2018-06-17T02:55:20.841Z,7.80
2018-06-17T02:57:53.547Z,9.63
2018-06-17T03:00:25.464Z,9.93
2018-06-17T03:02:57.048Z,11.77
2018-06-17T03:05:28.975Z,12.50
2018-06-17T03:08:00.547Z,12.57
2018-06-17T03:10:32.936Z,13.10
2018-06-17T03:13:04.623Z,14.40
2018-06-17T03:15:36.504Z,15.00
2018-06-17T03:18:08.113Z,13.43
2018-06-17T03:20:40.382Z,13.47
2018-06-17T03:23:12.255Z,15.03
2018-06-17T03:25:48.962Z,15.70
2018-06-17T03:28:25.190Z,14.80
2018-06-17T03:31:02.167Z,11.23
2018-06-17T03:33:38.477Z,11.20
2018-06-17T03:36:11.065Z,10.37
2018-06-17T03:38:43.034Z,9.97
2018-06-17T03:41:15.143Z,8.60
2018-06-17T03:43:46.831Z,10.67
2018-06-17T03:46:18.720Z,9.20
2018-06-17T03:48:50.491Z,10.00
2018-06-17T03:51:22.115Z,7.73
2018-06-17T03:53:53.860Z,9.00
2018-06-17T03:56:25.756Z,8.50
2018-06-17T03:58:57.205Z,7.70
2018-06-17T04:01:29.178Z,8.10
2018-06-17T04:04:00.702Z,6.80
2018-06-17T04:06:32.383Z,7.37
2018-06-17T04:09:05.041Z,7.47
2018-06-17T04:11:36.950Z,7.60
2018-06-17T04:14:08.531Z,6.90
2018-06-17T04:16:39.517Z,6.50
2018-06-17T04:19:11.138Z,6.73
2018-06-17T04:21:42.404Z,6.50
2018-06-17T04:24:13.915Z,7.33
2018-06-17T04:26:45.787Z,7.70
2018-06-17T04:29:17.498Z,7.37
2018-06-17T04:31:49.234Z,6.90
2018-06-17T04:34:20.754Z,7.00
2018-06-17T04:36:52.660Z,7.77
2018-06-17T04:39:24.053Z,8.03
2018-06-17T04:41:56.039Z,7.00
2018-06-17T04:44:27.559Z,7.83
2018-06-17T04:47:00.678Z,6.90
2018-06-17T04:49:32.263Z,7.63
2018-06-17T04:52:04.038Z,7.10
2018-06-17T04:54:37.109Z,7.20
2018-06-17T04:57:08.944Z,8.40
2018-06-17T04:59:40.479Z,7.13
2018-06-17T05:02:12.228Z,7.10
2018-06-17T05:04:43.849Z,7.33
2018-06-17T05:07:15.521Z,6.17
2018-06-17T05:09:47.026Z,7.17
2018-06-17T05:12:18.879Z,6.50
2018-06-17T05:14:50.603Z,6.85
2018-06-17T05:17:22.443Z,7.05
2018-06-17T05:19:53.980Z,6.75
2018-06-17T05:22:26.085Z,5.90
2018-06-17T05:24:57.844Z,6.83
2018-06-17T05:27:29.767Z,7.60
2018-06-17T05:30:01.549Z,6.50
2018-06-17T05:32:33.531Z,7.07
2018-06-17T05:35:05.211Z,6.90
2018-06-17T05:37:36.900Z,7.10
2018-06-17T05:40:08.476Z,7.37
2018-06-17T05:42:40.487Z,6.90
2018-06-17T05:45:11.986Z,7.90
2018-06-17T05:47:43.861Z,7.17
2018-06-17T05:50:15.402Z,7.45
2018-06-17T05:52:46.988Z,6.95
2018-06-17T05:55:19.805Z,6.67
2018-06-17T05:57:51.763Z,7.20
2018-06-17T06:00:23.668Z,7.45
2018-06-17T06:02:54.942Z,6.20
2018-06-17T06:05:26.679Z,7.20
2018-06-17T06:07:57.734Z,6.87
2018-06-17T06:10:29.886Z,20.12
2018-06-17T06:13:02.028Z,7.65
2018-06-17T06:15:33.768Z,6.80
2018-06-17T06:18:05.803Z,8.00
2018-06-17T06:20:37.564Z,7.87
2018-06-17T06:23:10.779Z,8.03
2018-06-17T06:25:45.279Z,7.60
2018-06-17T06:28:17.461Z,7.00
2018-06-17T06:30:49.286Z,7.63
2018-06-17T06:33:21.045Z,7.03
2018-06-17T06:35:52.464Z,7.17
2018-06-17T06:38:24.401Z,6.12
2018-06-17T06:40:57.177Z,6.40
2018-06-17T06:43:29.090Z,6.72
2018-06-17T06:46:00.905Z,7.22
2018-06-17T06:48:32.940Z,6.33
2018-06-17T06:51:04.563Z,6.53
2018-06-17T06:53:36.744Z,6.12
2018-06-17T06:56:09.600Z,8.05
2018-06-17T06:58:41.301Z,7.17
2018-06-17T07:01:13.070Z,6.67
2018-06-17T07:03:55.406Z,6.53
2018-06-17T07:06:36.573Z,8.55
2018-06-17T07:10:16.202Z,6.70
2018-06-17T07:12:46.925Z,7.30
2018-06-17T07:15:18.280Z,7.63
2018-06-17T07:17:59.912Z,7.10
2018-06-17T07:20:32.159Z,7.03
2018-06-17T07:23:03.346Z,6.77
2018-06-17T07:26:46.314Z,7.93
2018-06-17T07:29:28.668Z,6.40
2018-06-17T07:32:00.259Z,7.40
2018-06-17T07:34:31.706Z,7.30
2018-06-17T07:37:03.270Z,6.40
2018-06-17T07:41:43.789Z,7.23
2018-06-17T07:44:15.230Z,7.23
2018-06-17T07:46:46.515Z,7.70
2018-06-17T07:49:30.688Z,6.70
2018-06-17T07:52:12.802Z,6.80
2018-06-17T07:54:45.009Z,6.93
2018-06-17T07:57:18.831Z,7.50
2018-06-17T07:59:50.417Z,7.50
2018-06-17T08:02:21.952Z,7.50
2018-06-17T08:04:53.538Z,7.80
2018-06-17T08:07:24.969Z,7.50
2018-06-17T08:09:56.678Z,7.17
2018-06-17T08:12:27.892Z,7.10
2018-06-17T08:14:59.608Z,6.57
2018-06-17T08:17:31.143Z,8.03
2018-06-17T08:20:01.808Z,7.93
2018-06-17T08:22:33.174Z,7.90
2018-06-17T08:25:05.364Z,7.30
2018-06-17T08:27:36.901Z,6.77
2018-06-17T08:30:08.460Z,7.30
2018-06-17T08:32:40.135Z,7.20
2018-06-17T08:35:11.847Z,7.07
2018-06-17T08:37:43.502Z,7.40
2018-06-17T08:40:15.073Z,6.83
2018-06-17T08:42:46.456Z,6.57
2018-06-17T08:45:18.520Z,6.13
2018-06-17T08:47:49.954Z,6.97
2018-06-17T08:50:21.403Z,7.23
2018-06-17T08:52:52.585Z,6.50
2018-06-17T08:55:23.099Z,7.30
2018-06-17T08:57:55.167Z,8.13
2018-06-17T09:00:26.783Z,8.63
2018-06-17T09:02:57.974Z,7.60
2018-06-17T09:05:29.807Z,9.20
2018-06-17T09:08:01.189Z,9.30
2018-06-17T09:10:32.769Z,9.40
2018-06-17T09:13:04.208Z,9.00
2018-06-17T09:15:35.139Z,9.03
2018-06-17T09:18:06.624Z,9.37
2018-06-17T09:20:37.871Z,9.57
2018-06-17T09:23:09.306Z,10.47
2018-06-17T09:25:41.156Z,8.20
2018-06-17T10:06:43.887Z,8.03
2018-06-17T10:15:05.069Z,8.87
2018-06-17T10:17:37.193Z,7.73
2018-06-17T10:20:12.444Z,8.60
2018-06-17T10:22:45.031Z,7.10
2018-06-17T10:25:19.376Z,7.30
2018-06-17T10:27:51.117Z,7.20
2018-06-17T10:30:24.779Z,7.13
2018-06-17T10:32:57.120Z,7.40
2018-06-17T10:35:29.829Z,6.80
2018-06-17T10:38:01.592Z,6.53
2018-06-17T10:40:33.165Z,6.67
2018-06-17T10:43:11.169Z,7.00
2018-06-17T10:45:42.817Z,6.97
2018-06-17T10:48:14.991Z,5.67
2018-06-17T10:50:46.576Z,6.73
2018-06-17T10:53:18.623Z,7.10
2018-06-17T10:55:49.835Z,6.57
2018-06-17T10:58:21.610Z,7.20
2018-06-17T11:00:53.307Z,6.37
2018-06-17T11:03:25.413Z,7.37
2018-06-17T11:05:56.982Z,6.70
2018-06-17T11:08:31.233Z,5.97
2018-06-17T11:11:03.139Z,7.23
2018-06-17T11:13:35.339Z,7.13
2018-06-17T11:16:06.973Z,6.23
2018-06-17T11:18:38.962Z,6.90
2018-06-17T11:21:10.659Z,6.63
2018-06-17T11:23:43.528Z,7.23
2018-06-17T11:26:15.596Z,6.27
2018-06-17T11:28:47.739Z,6.50
2018-06-17T11:31:19.447Z,6.83
2018-06-17T11:33:52.084Z,7.10
2018-06-17T11:36:23.630Z,6.07
2018-06-17T11:38:55.547Z,8.53
2018-06-17T11:41:27.400Z,8.10
2018-06-17T11:43:59.921Z,7.63
2018-06-17T11:46:31.733Z,6.87
2018-06-17T11:49:03.660Z,7.83
2018-06-17T11:51:35.659Z,7.60
2018-06-17T11:54:07.773Z,7.53
2018-06-17T11:56:39.608Z,9.10
2018-06-17T11:59:10.954Z,8.43
2018-06-17T12:01:41.710Z,8.10
2018-06-17T12:04:13.708Z,8.40
2018-06-17T12:06:45.588Z,8.70
2018-06-17T12:09:19.101Z,9.50
2018-06-17T12:11:50.962Z,8.03
2018-06-17T12:14:23.199Z,8.37
2018-06-17T12:16:55.099Z,7.53
2018-06-17T12:19:27.223Z,7.00
2018-06-17T12:21:59.394Z,7.73
2018-06-17T12:24:31.426Z,8.50
2018-06-17T12:27:03.367Z,7.57
2018-06-17T12:29:35.266Z,7.33
2018-06-17T12:32:06.395Z,7.27
2018-06-17T12:34:38.942Z,6.93
2018-06-17T12:37:10.900Z,7.57
2018-06-17T12:39:43.989Z,6.63
2018-06-17T12:42:15.767Z,7.57
2018-06-17T12:44:47.967Z,6.90
2018-06-17T12:47:19.536Z,7.13
2018-06-17T12:49:52.216Z,8.23
2018-06-17T12:52:24.694Z,6.53
2018-06-17T12:54:56.654Z,7.43
2018-06-17T12:57:28.611Z,8.40
2018-06-17T13:00:00.870Z,7.90
2018-06-17T13:02:32.644Z,7.67
2018-06-17T13:05:04.527Z,8.10
2018-06-17T13:07:36.104Z,7.00
2018-06-17T13:10:10.635Z,7.50
2018-06-17T13:12:42.652Z,7.50
2018-06-17T13:15:14.719Z,8.80
2018-06-17T13:17:48.204Z,7.97
2018-06-17T13:20:19.949Z,9.10
2018-06-17T13:22:53.270Z,8.80
2018-06-17T13:25:27.286Z,8.63
2018-06-17T13:27:59.046Z,7.20
2018-06-17T13:30:31.824Z,7.30
2018-06-17T13:33:03.951Z,8.33
2018-06-17T13:35:37.140Z,7.83
2018-06-17T13:38:08.927Z,7.30
2018-06-17T13:40:47.361Z,7.90
2018-06-17T13:43:19.026Z,8.83
2018-06-17T13:45:50.838Z,8.33
2018-06-17T13:48:22.706Z,7.97
2018-06-17T13:50:54.448Z,7.97
2018-06-17T13:53:25.959Z,8.13
2018-06-17T13:55:57.881Z,9.43
2018-06-17T13:58:29.554Z,9.43
2018-06-17T14:01:01.643Z,9.47
2018-06-17T14:03:33.658Z,10.10
2018-06-17T14:06:05.982Z,8.63
2018-06-17T14:08:37.784Z,8.60
2018-06-17T14:11:11.995Z,8.60
2018-06-17T14:13:43.823Z,7.80
2018-06-17T14:16:15.888Z,8.60
2018-06-17T14:18:47.884Z,9.27
2018-06-17T14:21:20.110Z,9.83
2018-06-17T14:23:52.046Z,8.80
2018-06-17T14:26:24.380Z,8.73
2018-06-17T14:28:56.171Z,9.13
2018-06-17T14:31:27.971Z,10.90
2018-06-17T14:34:00.093Z,8.30
2018-06-17T14:36:32.107Z,8.63
2018-06-17T14:39:04.498Z,9.70
2018-06-17T14:41:36.355Z,10.23
2018-06-17T14:44:13.000Z,8.53
2018-06-17T14:46:49.983Z,9.00
2018-06-17T14:49:26.413Z,8.67
2018-06-17T14:52:03.148Z,8.53
2018-06-17T14:54:34.807Z,8.27
2018-06-17T14:57:06.754Z,7.93
2018-06-17T14:59:38.612Z,9.43
2018-06-17T15:02:12.213Z,8.20
2018-06-17T15:04:44.506Z,7.93
2018-06-17T15:07:16.715Z,8.23
2018-06-17T15:09:48.632Z,8.20
2018-06-17T15:12:22.008Z,10.27
2018-06-17T15:14:53.997Z,8.60
2018-06-17T15:17:25.645Z,8.97
2018-06-17T15:19:57.136Z,9.27
2018-06-17T15:22:29.622Z,9.50
2018-06-17T15:25:01.919Z,9.07
2018-06-17T15:27:33.151Z,9.77
2018-06-17T15:30:04.989Z,8.60
2018-06-17T15:32:41.919Z,8.37
2018-06-17T15:35:18.398Z,9.37
2018-06-17T15:37:55.291Z,8.40
2018-06-17T15:40:31.788Z,8.73
2018-06-17T15:43:03.886Z,9.37
2018-06-17T15:45:35.511Z,8.50
2018-06-17T15:48:07.690Z,8.70
2018-06-17T15:50:39.647Z,8.77
2018-06-17T15:53:10.483Z,8.97
2018-06-17T15:55:42.156Z,9.00
2018-06-17T15:58:14.267Z,8.63
2018-06-17T16:00:45.787Z,8.57
2018-06-17T16:03:17.532Z,9.37
2018-06-17T16:05:48.443Z,8.73
2018-06-17T16:08:20.317Z,7.67
2018-06-17T16:10:51.671Z,9.73
2018-06-17T16:13:29.603Z,8.53
2018-06-17T16:16:05.511Z,9.13
2018-06-17T16:18:42.702Z,9.10
2018-06-17T16:21:14.071Z,8.50
2018-06-17T16:23:45.946Z,8.47
2018-06-17T16:26:17.131Z,8.80
2018-06-17T16:28:48.629Z,9.87
2018-06-17T16:31:20.639Z,8.53
2018-06-17T16:33:52.753Z,9.33
2018-06-17T16:36:24.868Z,8.97
2018-06-17T16:38:56.886Z,8.70
2018-06-17T16:41:28.894Z,9.97
2018-06-17T16:44:00.670Z,7.93
2018-06-17T16:46:31.974Z,9.53
2018-06-17T16:49:04.536Z,9.70
2018-06-17T16:51:40.999Z,9.73
2018-06-17T16:54:17.750Z,9.00
2018-06-17T16:56:54.379Z,9.00
2018-06-17T16:59:31.018Z,10.03
2018-06-17T17:02:04.236Z,9.20
2018-06-17T17:04:36.839Z,9.80
2018-06-17T17:07:09.698Z,9.13
2018-06-17T17:09:47.217Z,9.63
2018-06-17T17:12:20.706Z,9.30
2018-06-17T17:14:53.408Z,9.23
2018-06-17T17:17:24.323Z,8.93
2018-06-17T17:20:03.422Z,9.57
2018-06-17T17:22:37.706Z,9.50
2018-06-17T17:25:11.067Z,9.33
2018-06-17T17:27:42.043Z,9.60
2018-06-17T17:30:14.811Z,9.30
2018-06-17T17:32:52.381Z,10.13
2018-06-17T17:35:30.528Z,9.13
2018-06-17T17:38:07.867Z,9.40
2018-06-17T17:40:49.266Z,9.03
2018-06-17T17:43:22.826Z,8.60
2018-06-17T17:45:58.550Z,8.93
2018-06-17T17:48:30.469Z,10.10
2018-06-17T17:51:03.035Z,9.60
2018-06-17T17:53:36.451Z,8.97
2018-06-17T17:56:10.782Z,8.93
2018-06-17T17:58:43.138Z,9.60
2018-06-17T18:01:16.443Z,9.70
2018-06-17T18:03:50.461Z,9.53
2018-06-17T18:06:24.194Z,10.23
2018-06-17T18:08:54.974Z,8.77
2018-06-17T18:11:26.527Z,8.50
2018-06-17T18:13:59.251Z,9.30
2018-06-17T18:16:33.174Z,9.10
2018-06-17T18:19:05.020Z,9.10
2018-06-17T18:21:42.971Z,10.30
2018-06-17T18:24:18.680Z,9.03
2018-06-17T18:26:54.238Z,9.80
2018-06-17T18:29:29.638Z,10.10
2018-06-17T18:32:05.960Z,9.50
2018-06-17T18:34:43.780Z,9.80
2018-06-17T18:37:16.761Z,10.00
2018-06-17T18:39:48.708Z,10.10
2018-06-17T18:42:19.971Z,10.63
2018-06-17T18:44:53.430Z,9.10
2018-06-17T18:47:26.834Z,10.50
2018-06-17T18:49:59.273Z,10.10
2018-06-17T18:52:31.255Z,9.70
2018-06-17T18:55:05.554Z,10.50
2018-06-17T18:57:39.427Z,10.07
2018-06-17T19:00:11.102Z,9.93
2018-06-17T19:02:45.516Z,10.20
2018-06-17T19:05:18.759Z,10.63
2018-06-17T19:07:51.267Z,10.40
2018-06-17T19:10:27.400Z,14.70
2018-06-17T19:13:05.173Z,16.03
2018-06-17T19:15:41.746Z,16.77
2018-06-17T19:18:15.555Z,14.97
2018-06-17T19:20:47.650Z,15.50
2018-06-17T19:23:19.833Z,13.57
2018-06-17T19:25:51.973Z,13.43
2018-06-17T19:28:24.035Z,12.17
2018-06-17T19:30:55.788Z,11.80
2018-06-17T19:33:27.867Z,13.13
2018-06-17T19:35:58.545Z,12.03
2018-06-17T19:38:30.577Z,12.40
2018-06-17T19:41:02.522Z,11.67
2018-06-17T19:43:34.217Z,12.30
2018-06-17T19:46:06.540Z,12.60
2018-06-17T19:48:38.606Z,12.47
2018-06-17T19:51:14.951Z,11.87
2018-06-17T19:53:51.346Z,11.60
2018-06-17T19:56:27.873Z,13.67
2018-06-17T19:59:04.543Z,11.70
2018-06-17T20:01:36.318Z,12.43
2018-06-17T20:04:08.648Z,10.73
2018-06-17T20:06:40.560Z,12.73
2018-06-17T20:09:13.751Z,13.13
2018-06-17T20:11:45.216Z,12.00
2018-06-17T20:14:17.108Z,12.53
2018-06-17T20:16:48.986Z,12.63
2018-06-17T20:19:21.737Z,12.97
2018-06-17T20:21:53.487Z,13.17
2018-06-17T20:24:25.541Z,13.13
2018-06-17T20:26:57.423Z,12.37
2018-06-17T20:29:29.620Z,12.87
2018-06-17T20:32:06.122Z,11.80
2018-06-17T20:35:42.089Z,12.27
2018-06-17T20:38:18.530Z,11.90
2018-06-17T20:40:55.381Z,11.20
2018-06-17T20:43:31.862Z,11.57
2018-06-17T20:46:03.999Z,12.33
2018-06-17T20:48:35.852Z,10.77
2018-06-17T20:51:07.860Z,10.60
2018-06-17T20:53:39.769Z,11.37
2018-06-17T20:56:11.758Z,11.47
2018-06-17T20:58:43.435Z,11.17
2018-06-17T21:01:15.328Z,11.00
2018-06-17T21:03:46.910Z,11.90
2018-06-17T21:06:18.995Z,10.57
2018-06-17T21:08:50.753Z,11.50
2018-06-17T21:11:22.488Z,10.67
2018-06-17T21:13:53.377Z,10.90
2018-06-17T21:16:25.597Z,10.70
2018-06-17T21:19:01.950Z,10.70
2018-06-17T21:21:39.743Z,10.40
2018-06-17T21:24:16.376Z,10.37
2018-06-17T21:26:53.491Z,11.63
2018-06-17T21:29:25.023Z,12.13
2018-06-17T21:31:57.042Z,10.37
2018-06-17T21:34:28.718Z,11.30
2018-06-17T21:37:00.774Z,11.13
2018-06-17T21:39:31.792Z,11.40
2018-06-17T21:42:03.835Z,10.83
2018-06-17T21:44:35.571Z,9.17
2018-06-17T21:47:07.591Z,9.17
2018-06-17T21:49:38.390Z,10.13
2018-06-17T21:52:10.709Z,9.80
2018-06-17T21:54:41.698Z,10.37
2018-06-17T21:57:13.946Z,10.70
2018-06-17T21:59:44.698Z,9.70
2018-06-17T22:02:16.780Z,8.63
2018-06-17T22:04:48.640Z,9.53
2018-06-17T22:07:20.714Z,9.27
2018-06-17T22:09:57.344Z,9.23
2018-06-17T22:12:33.784Z,8.93
2018-06-17T22:15:11.667Z,8.60
2018-06-17T22:17:48.175Z,9.30
2018-06-17T22:20:19.855Z,9.73
2018-06-17T22:22:53.023Z,9.23
2018-06-17T22:25:24.997Z,9.27
2018-06-17T22:27:56.767Z,9.63
2018-06-17T22:30:27.858Z,9.77
2018-06-17T22:33:00.282Z,10.07
2018-06-17T22:35:32.083Z,8.73
2018-06-17T22:38:04.114Z,9.93
2018-06-17T22:40:35.777Z,9.07
2018-06-17T22:43:07.731Z,10.00
2018-06-17T22:45:39.389Z,9.10
2018-06-17T22:48:11.537Z,9.73
2018-06-17T22:50:43.267Z,10.07
2018-06-17T22:53:25.214Z,9.70
2018-06-17T22:55:56.736Z,9.53
2018-06-17T22:58:33.531Z,8.57
2018-06-17T23:01:10.226Z,9.53
2018-06-17T23:03:47.062Z,9.77
2018-06-17T23:06:23.639Z,9.67
2018-06-17T23:09:00.356Z,9.43
2018-06-17T23:11:32.406Z,9.20
2018-06-17T23:14:03.583Z,10.67
2018-06-17T23:16:35.167Z,8.50
2018-06-17T23:19:07.183Z,9.60
2018-06-17T23:21:39.013Z,9.83
2018-06-17T23:24:13.111Z,9.23
2018-06-17T23:26:44.959Z,9.17
2018-06-17T23:29:16.894Z,9.00
2018-06-17T23:31:49.012Z,10.27
2018-06-17T23:34:21.367Z,9.97
2018-06-17T23:36:53.073Z,9.60
2018-06-17T23:39:25.772Z,8.70
2018-06-17T23:41:57.446Z,9.53
2018-06-17T23:44:29.527Z,8.83
2018-06-17T23:47:06.238Z,8.07
2018-06-17T23:49:43.082Z,8.70
2018-06-17T23:52:18.226Z,7.60
2018-06-17T23:55:57.805Z,7.97
2018-06-17T23:58:29.779Z,7.60
